Cheshire, Oregon
Current Conditions -  °F | °C
As of 7:54 PM on Saturday 20 Dec 2014 (Local Time) from KEUG Reporting Station
Light Rain Light Rain  
Wind Chill: 56°   Ceiling: 3600
Heat Index: 56°   Visibility: 8mi
Dew Point: 54°   Wind: 14mph
Humidity: 93%   Direction: 180°S
Pressure: 29.81"   Gusts: NA
Location:  44.19°N, 123.29°W
Report Text: KEUG 210354Z 18012KT 8SM -RA SCT019 OVC036 13/12 A2981 RMK AO2 SLP095 P0008 T01330122
Loading
Personal Weather Stations






























Interactive Weather Map New forecast layout! Learn more

10-Day Weather Forecast

Advertisements
Track Severe Weather on mobile